createdAt,value
2018-07-15T00:01:39.388Z,16.74
2018-07-15T00:04:09.104Z,16.58
2018-07-15T00:06:38.717Z,16.42
2018-07-15T00:09:08.584Z,16.33
2018-07-15T00:11:38.243Z,16.21
2018-07-15T00:14:08.006Z,16.10
2018-07-15T00:16:37.622Z,15.94
2018-07-15T00:19:07.312Z,15.98
2018-07-15T00:21:36.912Z,16.12
2018-07-15T00:24:06.591Z,15.99
2018-07-15T00:26:36.372Z,15.79
2018-07-15T00:29:05.991Z,15.83
2018-07-15T00:31:35.592Z,16.18
2018-07-15T00:34:05.275Z,16.17
2018-07-15T00:36:34.883Z,15.89
2018-07-15T00:39:05.093Z,16.20
2018-07-15T00:41:34.809Z,16.11
2018-07-15T00:44:04.763Z,15.79
2018-07-15T00:46:34.492Z,15.65
2018-07-15T00:49:04.147Z,15.79
2018-07-15T00:51:33.743Z,15.88
2018-07-15T00:54:03.494Z,15.77
2018-07-15T00:56:33.104Z,15.98
2018-07-15T00:59:02.712Z,16.05
2018-07-15T01:01:37.580Z,16.04
2018-07-15T01:04:07.539Z,16.02
2018-07-15T01:06:37.215Z,15.91
2018-07-15T01:09:09.436Z,15.82
2018-07-15T01:11:39.156Z,15.58
2018-07-15T01:14:09.319Z,15.35
2018-07-15T01:16:40.420Z,15.52
2018-07-15T01:19:10.480Z,15.65
2018-07-15T01:21:40.155Z,15.49
2018-07-15T01:24:09.808Z,15.33
2018-07-15T01:26:39.427Z,15.39
2018-07-15T01:29:09.095Z,15.63
2018-07-15T01:31:38.825Z,15.66
2018-07-15T01:34:08.436Z,15.67
2018-07-15T01:36:38.267Z,15.64
2018-07-15T01:39:07.884Z,15.64
2018-07-15T01:41:37.504Z,15.58
2018-07-15T01:44:07.192Z,15.44
2018-07-15T01:46:36.804Z,15.19
2018-07-15T01:49:06.487Z,15.02
2018-07-15T01:51:36.145Z,15.14
2018-07-15T01:54:05.816Z,15.31
2018-07-15T01:56:35.432Z,15.21
2018-07-15T01:59:15.316Z,15.10
2018-07-15T02:01:44.912Z,15.26
2018-07-15T02:04:14.524Z,15.39
2018-07-15T02:06:44.200Z,15.42
2018-07-15T02:09:13.827Z,15.46
2018-07-15T02:11:43.527Z,15.44
2018-07-15T02:14:13.195Z,15.36
2018-07-15T02:16:42.835Z,15.03
2018-07-15T02:19:12.468Z,15.17
2018-07-15T02:21:42.122Z,15.22
2018-07-15T02:24:11.733Z,15.01
2018-07-15T02:26:41.395Z,14.75
2018-07-15T02:29:10.988Z,14.65
2018-07-15T02:31:40.605Z,14.87
2018-07-15T02:34:11.075Z,15.02
2018-07-15T02:36:40.789Z,15.06
2018-07-15T02:39:11.216Z,15.03
2018-07-15T02:41:40.836Z,15.03
2018-07-15T02:44:10.448Z,15.12
2018-07-15T02:46:40.108Z,15.13
2018-07-15T02:49:09.707Z,15.12
2018-07-15T02:51:39.352Z,15.10
2018-07-15T02:54:09.032Z,15.07
2018-07-15T02:56:38.664Z,14.85
2018-07-15T02:59:08.283Z,14.81
2018-07-15T03:01:37.940Z,14.80
2018-07-15T03:04:07.548Z,14.59
2018-07-15T03:06:37.256Z,14.44
2018-07-15T03:09:09.327Z,14.36
2018-07-15T03:11:39.000Z,14.30
2018-07-15T03:14:08.628Z,14.19
2018-07-15T03:16:38.268Z,14.22
2018-07-15T03:19:07.933Z,14.12
2018-07-15T03:21:37.581Z,13.93
2018-07-15T03:24:07.248Z,13.96
2018-07-15T03:26:36.852Z,13.69
2018-07-15T03:29:06.735Z,13.62
2018-07-15T03:31:36.375Z,13.45
2018-07-15T03:34:06.156Z,13.51
2018-07-15T03:36:35.740Z,13.89
2018-07-15T03:39:06.923Z,14.03
2018-07-15T03:41:36.512Z,13.91
2018-07-15T03:44:06.375Z,13.71
2018-07-15T03:46:36.059Z,14.00
2018-07-15T03:49:05.684Z,14.13
2018-07-15T03:51:35.357Z,14.27
2018-07-15T03:54:05.010Z,14.23
2018-07-15T03:56:34.636Z,14.00
2018-07-15T03:59:04.348Z,14.12
2018-07-15T04:01:33.977Z,14.17
2018-07-15T04:04:03.630Z,14.21
2018-07-15T04:06:33.240Z,13.99
2018-07-15T04:09:03.175Z,14.00
2018-07-15T04:11:32.800Z,13.79
2018-07-15T04:14:02.395Z,13.79
2018-07-15T04:16:32.076Z,13.90
2018-07-15T04:19:01.689Z,14.09
2018-07-15T04:21:31.296Z,14.16
2018-07-15T04:24:00.932Z,14.21
2018-07-15T04:26:30.536Z,14.27
2018-07-15T04:29:00.372Z,14.25
2018-07-15T04:31:29.972Z,14.20
2018-07-15T04:33:59.572Z,14.14
2018-07-15T04:36:29.263Z,14.27
2018-07-15T04:38:58.861Z,14.37
2018-07-15T04:41:28.495Z,14.58
2018-07-15T04:43:58.217Z,14.63
2018-07-15T04:46:27.816Z,14.70
2018-07-15T04:48:57.404Z,14.75
2018-07-15T04:51:27.052Z,14.87
2018-07-15T04:53:56.659Z,14.95
2018-07-15T04:56:26.316Z,14.92
2018-07-15T04:58:55.954Z,15.08
2018-07-15T05:01:25.539Z,15.05
2018-07-15T05:03:55.180Z,15.17
2018-07-15T05:06:24.787Z,15.18
2018-07-15T05:08:54.496Z,15.19
2018-07-15T05:11:24.202Z,15.36
2018-07-15T05:13:53.768Z,15.41
2018-07-15T05:16:23.368Z,15.61
2018-07-15T05:18:53.020Z,15.76
2018-07-15T05:21:22.657Z,15.92
2018-07-15T05:23:52.271Z,15.93
2018-07-15T05:26:21.925Z,16.12
2018-07-15T05:28:51.558Z,16.23
2018-07-15T05:31:21.212Z,16.37
2018-07-15T05:33:50.811Z,16.51
2018-07-15T05:36:20.427Z,16.63
2018-07-15T05:38:50.103Z,16.64
2018-07-15T05:41:19.741Z,16.73
2018-07-15T05:43:49.413Z,16.72
2018-07-15T05:46:19.069Z,16.85
2018-07-15T05:48:48.685Z,16.89
2018-07-15T05:51:18.393Z,16.87
2018-07-15T05:53:48.047Z,16.99
2018-07-15T05:56:17.670Z,17.07
2018-07-15T05:58:47.295Z,17.22
2018-07-15T06:01:16.958Z,17.37
2018-07-15T06:03:46.588Z,17.37
2018-07-15T06:06:16.279Z,17.43
2018-07-15T06:08:45.924Z,17.59
2018-07-15T06:11:15.600Z,17.35
2018-07-15T06:13:45.247Z,17.63
2018-07-15T06:16:14.884Z,17.92
2018-07-15T06:18:44.528Z,17.93
2018-07-15T06:21:14.206Z,18.16
2018-07-15T06:23:43.844Z,18.30
2018-07-15T06:26:13.459Z,18.48
2018-07-15T06:28:43.111Z,18.52
2018-07-15T06:31:12.755Z,18.56
2018-07-15T06:33:42.352Z,18.66
2018-07-15T06:36:12.259Z,18.74
2018-07-15T06:38:41.879Z,18.87
2018-07-15T06:41:11.482Z,18.90
2018-07-15T06:43:41.144Z,18.97
2018-07-15T06:46:10.764Z,19.01
2018-07-15T06:48:40.487Z,19.14
2018-07-15T06:51:10.131Z,19.22
2018-07-15T06:53:39.775Z,19.31
2018-07-15T06:56:09.465Z,19.40
2018-07-15T06:58:39.104Z,19.49
2018-07-15T07:01:08.743Z,19.54
2018-07-15T07:03:38.395Z,19.64
2018-07-15T07:06:08.036Z,19.67
2018-07-15T07:08:37.659Z,19.78
2018-07-15T07:11:07.384Z,19.87
2018-07-15T07:13:37.024Z,19.97
2018-07-15T07:16:06.720Z,20.05
2018-07-15T07:18:36.375Z,20.16
2018-07-15T07:21:06.001Z,20.20
2018-07-15T07:23:35.620Z,20.26
2018-07-15T07:26:05.379Z,20.38
2018-07-15T07:28:35.008Z,20.50
2018-07-15T07:31:04.760Z,20.48
2018-07-15T07:33:34.412Z,20.56
2018-07-15T07:36:04.108Z,20.68
2018-07-15T07:38:33.720Z,20.73
2018-07-15T07:41:03.381Z,20.86
2018-07-15T07:43:32.989Z,20.91
2018-07-15T07:46:02.605Z,20.87
2018-07-15T07:48:32.274Z,20.94
2018-07-15T07:51:01.884Z,20.98
2018-07-15T07:53:31.528Z,21.10
2018-07-15T07:56:01.200Z,21.20
2018-07-15T07:58:30.819Z,21.34
2018-07-15T08:01:00.498Z,21.49
2018-07-15T08:03:30.161Z,21.48
2018-07-15T08:05:59.780Z,21.47
2018-07-15T08:08:29.453Z,21.53
2018-07-15T08:10:59.072Z,21.68
2018-07-15T08:13:28.683Z,21.71
2018-07-15T08:15:58.376Z,21.85
2018-07-15T08:18:28.009Z,21.89
2018-07-15T08:20:57.654Z,21.97
2018-07-15T08:23:27.320Z,22.01
2018-07-15T08:25:57.195Z,22.19
2018-07-15T08:28:26.995Z,22.40
2018-07-15T08:31:04.692Z,22.56
2018-07-15T08:33:34.317Z,22.53
2018-07-15T08:36:03.983Z,22.62
2018-07-15T08:38:33.764Z,22.66
2018-07-15T08:41:03.425Z,22.70
2018-07-15T08:43:33.076Z,22.87
2018-07-15T08:46:02.782Z,23.02
2018-07-15T08:48:32.696Z,23.13
2018-07-15T08:51:02.456Z,23.16
2018-07-15T08:53:32.116Z,23.13
2018-07-15T08:56:01.767Z,23.19
2018-07-15T08:58:31.469Z,23.36
2018-07-15T09:01:01.196Z,23.40
2018-07-15T09:03:30.849Z,23.50
2018-07-15T09:06:00.544Z,23.58
2018-07-15T09:08:37.304Z,23.70
2018-07-15T09:11:07.014Z,23.92
2018-07-15T09:13:36.779Z,23.96
2018-07-15T09:16:06.433Z,24.11
2018-07-15T09:18:36.107Z,24.17
2018-07-15T09:21:05.735Z,24.35
2018-07-15T09:23:35.437Z,24.41
2018-07-15T09:26:05.133Z,24.42
2018-07-15T09:28:34.748Z,24.43
2018-07-15T09:31:04.409Z,24.46
2018-07-15T09:33:34.124Z,24.54
2018-07-15T09:36:03.761Z,24.52
2018-07-15T09:38:33.380Z,24.69
2018-07-15T09:41:03.069Z,24.81
2018-07-15T09:43:32.696Z,24.89
2018-07-15T09:46:02.340Z,24.82
2018-07-15T09:48:32.021Z,24.85
2018-07-15T09:51:01.644Z,24.77
2018-07-15T09:53:31.261Z,24.98
2018-07-15T09:56:00.928Z,25.00
2018-07-15T09:58:30.551Z,25.18
2018-07-15T10:01:00.248Z,25.13
2018-07-15T10:03:29.911Z,25.15
2018-07-15T10:05:59.567Z,25.09
2018-07-15T10:08:29.224Z,25.13
2018-07-15T10:10:58.851Z,25.43
2018-07-15T10:13:28.487Z,25.56
2018-07-15T10:15:58.395Z,25.79
2018-07-15T10:18:28.058Z,25.68
2018-07-15T10:20:57.693Z,25.70
2018-07-15T10:23:27.527Z,25.84
2018-07-15T10:25:57.188Z,25.94
2018-07-15T10:28:27.119Z,26.07
2018-07-15T10:30:56.766Z,26.26
2018-07-15T10:33:26.408Z,26.24
2018-07-15T10:35:56.092Z,26.23
2018-07-15T10:38:25.776Z,26.34
2018-07-15T10:40:55.724Z,26.25
2018-07-15T10:43:25.390Z,26.07
2018-07-15T10:45:55.013Z,25.90
2018-07-15T10:48:24.648Z,26.12
2018-07-15T10:50:54.309Z,26.35
2018-07-15T10:53:23.923Z,26.32
2018-07-15T10:55:53.579Z,26.35
2018-07-15T10:58:23.316Z,26.49
2018-07-15T11:00:52.969Z,26.38
2018-07-15T11:03:22.693Z,26.31
2018-07-15T11:05:52.402Z,26.44
2018-07-15T11:08:22.012Z,26.67
2018-07-15T11:10:51.673Z,27.03
2018-07-15T11:13:21.460Z,27.09
2018-07-15T11:15:51.068Z,26.92
2018-07-15T11:18:20.696Z,26.97
2018-07-15T11:20:50.346Z,27.14
2018-07-15T11:23:19.969Z,27.46
2018-07-15T11:25:49.624Z,27.55
2018-07-15T11:28:19.292Z,27.59
2018-07-15T11:30:48.941Z,27.43
2018-07-15T11:33:18.695Z,27.66
2018-07-15T11:35:48.355Z,27.80
2018-07-15T11:38:18.421Z,27.79
2018-07-15T11:40:48.063Z,27.79
2018-07-15T11:43:17.676Z,28.05
2018-07-15T11:45:47.307Z,28.31
2018-07-15T11:48:16.974Z,28.46
2018-07-15T11:50:46.626Z,28.75
2018-07-15T11:53:16.400Z,28.91
2018-07-15T11:55:46.052Z,28.98
2018-07-15T11:58:15.671Z,29.28
2018-07-15T12:00:45.332Z,29.46
2018-07-15T12:03:14.955Z,29.37
2018-07-15T12:05:44.628Z,29.14
2018-07-15T12:08:14.300Z,29.07
2018-07-15T12:10:43.896Z,29.04
2018-07-15T12:13:13.519Z,28.99
2018-07-15T12:15:43.182Z,29.10
2018-07-15T12:18:12.795Z,28.89
2018-07-15T12:20:42.424Z,28.94
2018-07-15T12:23:12.088Z,28.95
2018-07-15T12:25:41.787Z,29.12
2018-07-15T12:28:11.523Z,29.24
2018-07-15T12:30:41.175Z,28.90
2018-07-15T12:33:10.827Z,29.04
2018-07-15T12:35:40.441Z,29.15
2018-07-15T12:38:10.094Z,29.09
2018-07-15T12:40:39.684Z,29.00
2018-07-15T12:43:09.297Z,29.19
2018-07-15T12:45:39.042Z,29.07
2018-07-15T12:48:08.654Z,28.99
2018-07-15T12:50:38.265Z,29.17
2018-07-15T12:53:07.956Z,29.26
2018-07-15T12:55:37.607Z,29.35
2018-07-15T12:58:07.275Z,29.32
2018-07-15T13:00:36.897Z,29.56
2018-07-15T13:03:06.540Z,29.73
2018-07-15T13:05:36.224Z,29.75
2018-07-15T13:08:05.892Z,29.73
2018-07-15T13:10:35.504Z,29.78
2018-07-15T13:13:05.216Z,29.79
2018-07-15T13:15:34.865Z,29.92
2018-07-15T13:18:04.537Z,30.03
2018-07-15T13:20:34.196Z,29.30
2018-07-15T13:23:03.840Z,29.35
2018-07-15T13:25:33.453Z,29.73
2018-07-15T13:28:03.116Z,29.59
2018-07-15T13:30:32.743Z,29.75
2018-07-15T13:33:02.401Z,29.94
2018-07-15T13:35:32.097Z,30.07
2018-07-15T13:38:01.724Z,30.40
2018-07-15T13:40:31.355Z,30.46
2018-07-15T13:43:01.028Z,30.52
2018-07-15T13:45:30.651Z,30.45
2018-07-15T13:48:00.259Z,30.59
2018-07-15T13:50:29.927Z,30.62
2018-07-15T13:52:59.596Z,30.44
2018-07-15T13:55:29.255Z,30.48
2018-07-15T13:57:58.871Z,30.53
2018-07-15T14:00:28.512Z,30.38
2018-07-15T14:02:58.169Z,30.30
2018-07-15T14:05:27.796Z,29.86
2018-07-15T14:07:57.436Z,29.71
2018-07-15T14:10:27.159Z,29.54
2018-07-15T14:12:56.795Z,29.59
2018-07-15T14:15:26.432Z,29.58
2018-07-15T14:17:56.112Z,29.23
2018-07-15T14:20:25.719Z,29.47
2018-07-15T14:22:55.341Z,29.74
2018-07-15T14:25:25.020Z,29.74
2018-07-15T14:27:54.692Z,29.63
2018-07-15T14:30:24.344Z,29.70
2018-07-15T14:32:54.036Z,29.78
2018-07-15T14:35:23.643Z,29.54
2018-07-15T14:37:53.290Z,29.57
2018-07-15T14:40:22.937Z,29.65
2018-07-15T14:42:52.563Z,29.38
2018-07-15T14:45:22.243Z,29.21
2018-07-15T14:47:51.864Z,29.07
2018-07-15T14:50:21.464Z,28.87
2018-07-15T14:52:51.227Z,28.55
2018-07-15T14:55:20.869Z,28.45
2018-07-15T14:57:50.778Z,27.99
2018-07-15T15:00:20.484Z,27.70
2018-07-15T15:02:50.097Z,27.60
2018-07-15T15:05:19.729Z,27.54
2018-07-15T15:07:49.418Z,27.40
2018-07-15T15:10:19.073Z,27.30
2018-07-15T15:12:48.681Z,27.24
2018-07-15T15:15:18.335Z,27.40
2018-07-15T15:17:47.951Z,27.39
2018-07-15T15:20:17.561Z,27.34
2018-07-15T15:22:47.216Z,27.32
2018-07-15T15:25:16.852Z,27.09
2018-07-15T15:27:46.502Z,27.15
2018-07-15T15:30:16.215Z,27.04
2018-07-15T15:32:45.835Z,27.04
2018-07-15T15:35:15.496Z,26.89
2018-07-15T15:37:45.472Z,26.83
2018-07-15T15:40:15.115Z,26.77
2018-07-15T15:42:44.780Z,26.68
2018-07-15T15:45:14.398Z,26.57
2018-07-15T15:47:44.084Z,26.56
2018-07-15T15:50:13.720Z,26.55
2018-07-15T15:52:43.345Z,26.52
2018-07-15T15:55:13.012Z,26.48
2018-07-15T15:57:42.624Z,26.46
2018-07-15T16:00:12.340Z,26.51
2018-07-15T16:02:42.076Z,26.42
2018-07-15T16:05:11.663Z,26.34
2018-07-15T16:07:41.308Z,26.32
2018-07-15T16:10:10.996Z,26.26
2018-07-15T16:12:40.599Z,26.29
2018-07-15T16:15:10.353Z,26.28
2018-07-15T16:17:39.990Z,26.31
2018-07-15T16:20:09.632Z,26.33
2018-07-15T16:22:39.286Z,26.33
2018-07-15T16:25:08.915Z,26.30
2018-07-15T16:27:38.508Z,26.22
2018-07-15T16:30:08.360Z,26.23
2018-07-15T16:32:37.986Z,26.24
2018-07-15T16:35:07.616Z,26.12
2018-07-15T16:37:37.332Z,26.07
2018-07-15T16:40:06.980Z,26.03
2018-07-15T16:42:36.620Z,26.02
2018-07-15T16:45:06.301Z,26.06
2018-07-15T16:47:35.924Z,26.06
2018-07-15T16:50:05.563Z,25.97
2018-07-15T16:52:35.231Z,25.99
2018-07-15T16:55:04.875Z,25.98
2018-07-15T16:57:34.460Z,25.93
2018-07-15T17:00:04.464Z,25.97
2018-07-15T17:02:34.148Z,25.90
2018-07-15T17:05:04.712Z,25.86
2018-07-15T17:07:34.309Z,25.86
2018-07-15T17:10:04.100Z,25.85
2018-07-15T17:12:33.729Z,25.81
2018-07-15T17:15:03.418Z,25.77
2018-07-15T17:17:33.076Z,25.72
2018-07-15T17:20:02.701Z,25.63
2018-07-15T17:22:32.296Z,25.66
2018-07-15T17:25:01.948Z,25.65
2018-07-15T17:27:31.541Z,25.60
2018-07-15T17:30:01.204Z,25.56
2018-07-15T17:32:30.897Z,25.55
2018-07-15T17:35:00.556Z,25.56
2018-07-15T17:37:30.162Z,25.55
2018-07-15T17:39:59.768Z,25.51
2018-07-15T17:42:29.419Z,25.47
2018-07-15T17:44:59.011Z,25.36
2018-07-15T17:47:28.704Z,25.35
2018-07-15T17:49:58.364Z,25.27
2018-07-15T17:52:27.961Z,25.34
2018-07-15T17:54:57.570Z,25.25
2018-07-15T17:57:27.260Z,25.22
2018-07-15T17:59:56.875Z,25.20
2018-07-15T18:02:26.589Z,25.19
2018-07-15T18:04:56.344Z,25.15
2018-07-15T18:07:25.908Z,25.05
2018-07-15T18:09:55.544Z,25.07
2018-07-15T18:12:25.244Z,25.00
2018-07-15T18:14:54.880Z,24.94
2018-07-15T18:17:24.487Z,24.87
2018-07-15T18:19:54.195Z,24.86
2018-07-15T18:22:23.784Z,24.73
2018-07-15T18:24:53.391Z,24.73
2018-07-15T18:27:23.155Z,24.68
2018-07-15T18:29:52.735Z,24.58
2018-07-15T18:32:22.335Z,24.56
2018-07-15T18:34:51.975Z,24.48
2018-07-15T18:37:21.563Z,24.43
2018-07-15T18:39:51.196Z,24.42
2018-07-15T18:42:20.830Z,24.42
2018-07-15T18:44:50.480Z,24.36
2018-07-15T18:47:20.131Z,24.31
2018-07-15T18:49:49.729Z,24.27
2018-07-15T18:52:19.391Z,24.19
2018-07-15T18:54:48.992Z,24.20
2018-07-15T18:57:18.593Z,24.07
2018-07-15T18:59:48.244Z,24.00
2018-07-15T19:02:17.859Z,23.95
2018-07-15T19:04:47.508Z,23.92
2018-07-15T19:07:17.108Z,23.86
2018-07-15T19:09:46.743Z,23.75
2018-07-15T19:12:16.634Z,23.71
2018-07-15T19:14:46.268Z,23.62
2018-07-15T19:17:15.878Z,23.63
2018-07-15T19:19:45.536Z,23.55
2018-07-15T19:22:15.147Z,23.48
2018-07-15T19:24:44.768Z,23.41
2018-07-15T19:27:14.424Z,23.36
2018-07-15T19:29:44.104Z,23.31
2018-07-15T19:32:13.747Z,23.24
2018-07-15T19:34:43.399Z,23.16
2018-07-15T19:37:13.020Z,23.08
2018-07-15T19:39:42.716Z,23.06
2018-07-15T19:42:12.396Z,23.01
2018-07-15T19:44:41.999Z,22.97
2018-07-15T19:47:11.628Z,22.86
2018-07-15T19:49:41.280Z,22.83
2018-07-15T19:52:10.899Z,22.76
2018-07-15T19:54:40.506Z,22.65
2018-07-15T19:57:10.307Z,22.57
2018-07-15T19:59:39.993Z,22.45
2018-07-15T20:02:09.599Z,22.39
2018-07-15T20:04:39.259Z,22.34
2018-07-15T20:07:08.866Z,22.30
2018-07-15T20:09:38.498Z,22.20
2018-07-15T20:12:08.188Z,22.14
2018-07-15T20:14:37.800Z,22.07
2018-07-15T20:17:07.504Z,22.05
2018-07-15T20:19:37.155Z,22.05
2018-07-15T20:22:07.005Z,22.02
2018-07-15T20:24:36.659Z,21.99
2018-07-15T20:27:06.355Z,21.87
2018-07-15T20:29:35.943Z,21.82
2018-07-15T20:32:05.587Z,21.77
2018-07-15T20:34:35.416Z,21.77
2018-07-15T20:37:05.060Z,21.73
2018-07-15T20:39:34.717Z,21.69
2018-07-15T20:42:04.368Z,21.59
2018-07-15T20:44:33.981Z,21.54
2018-07-15T20:47:03.588Z,21.50
2018-07-15T20:49:33.287Z,21.39
2018-07-15T20:52:02.909Z,21.44
2018-07-15T20:54:32.543Z,21.37
2018-07-15T20:57:02.214Z,20.97
2018-07-15T20:59:31.828Z,20.81
2018-07-15T21:02:01.480Z,20.90
2018-07-15T21:04:31.310Z,20.92
2018-07-15T21:07:01.016Z,20.89
2018-07-15T21:09:30.639Z,21.07
2018-07-15T21:12:00.335Z,21.03
2018-07-15T21:14:30.040Z,20.91
2018-07-15T21:16:59.652Z,20.69
2018-07-15T21:19:29.316Z,20.36
2018-07-15T21:21:58.945Z,20.16
2018-07-15T21:24:28.576Z,19.97
2018-07-15T21:26:58.239Z,20.17
2018-07-15T21:29:27.854Z,20.27
2018-07-15T21:31:57.453Z,20.03
2018-07-15T21:34:27.112Z,20.04
2018-07-15T21:36:56.764Z,20.11
2018-07-15T21:39:26.367Z,20.21
2018-07-15T21:41:56.028Z,20.22
2018-07-15T21:44:25.750Z,20.24
2018-07-15T21:46:55.407Z,20.23
2018-07-15T21:49:25.275Z,20.07
2018-07-15T21:51:54.888Z,19.95
2018-07-15T21:54:24.513Z,19.97
2018-07-15T21:56:54.184Z,19.97
2018-07-15T21:59:23.791Z,19.79
2018-07-15T22:01:53.404Z,19.53
2018-07-15T22:04:23.156Z,19.51
2018-07-15T22:07:03.716Z,19.50
2018-07-15T22:09:57.053Z,19.54
2018-07-15T22:12:26.660Z,19.67
2018-07-15T22:14:56.283Z,19.66
2018-07-15T22:17:25.951Z,19.53
2018-07-15T22:19:55.557Z,19.42
2018-07-15T22:22:25.236Z,19.35
2018-07-15T22:24:54.859Z,19.24
2018-07-15T22:27:24.464Z,19.34
2018-07-15T22:29:54.110Z,19.24
2018-07-15T22:32:23.735Z,19.08
2018-07-15T22:34:53.365Z,19.10
2018-07-15T22:37:23.059Z,18.88
2018-07-15T22:39:52.671Z,18.79
2018-07-15T22:42:22.267Z,18.63
2018-07-15T22:44:52.044Z,18.81
2018-07-15T22:47:21.675Z,18.89
2018-07-15T22:49:51.275Z,18.94
2018-07-15T22:52:21.143Z,18.89
2018-07-15T22:54:50.800Z,18.69
2018-07-15T22:57:20.422Z,18.62
2018-07-15T22:59:50.085Z,18.69
2018-07-15T23:02:19.715Z,18.71
2018-07-15T23:05:58.876Z,18.55
2018-07-15T23:08:29.744Z,18.27
2018-07-15T23:10:59.667Z,18.13
2018-07-15T23:13:29.348Z,18.11
2018-07-15T23:15:58.995Z,18.05
2018-07-15T23:18:28.673Z,17.90
2018-07-15T23:20:58.323Z,17.83
2018-07-15T23:23:27.976Z,17.92
2018-07-15T23:25:57.644Z,17.90
2018-07-15T23:28:27.262Z,17.96
2018-07-15T23:30:56.929Z,17.76
2018-07-15T23:33:26.556Z,17.94
2018-07-15T23:35:56.219Z,18.07
2018-07-15T23:38:25.836Z,17.81
2018-07-15T23:40:55.452Z,17.74
2018-07-15T23:43:25.107Z,17.72
2018-07-15T23:45:54.741Z,17.55
2018-07-15T23:48:24.341Z,17.43
2018-07-15T23:50:53.996Z,17.34
2018-07-15T23:53:23.611Z,17.58
2018-07-15T23:55:53.216Z,17.59
2018-07-15T23:58:22.871Z,17.33
